Racecast

Michelle Hanson

Folsom (CA) · 12 · SFLCA D1SJS D1YOLO · Compare head to head

Athlete rating 114.7 2014 XC season
Best race 115.6 XC
Races 45
Seasons 3 2012 — 2014

RankedNation #23772·CA #2877·CA D1 #1426·SJS #283·SJS D1 #205·SFL #70·Team #13 ?

Speed rating — all races

Cross Country

XC speed rating

2014 XC 113.1

Folsom (CA) · Grade 12

Date Meet Event Result Place Rating Difficulty PR/SR Flags
2014-10-31 Springview Drive 5000m 22:05 45th · 6th on team 112.0 +0.003 ★CR CSR
2014-10-11 Woodward Park 5000m 21:39 116th · 6th on team 115.6 +0.013 ★PR ★CR ★R SR CSR RSR
2014-10-01 Nevada Union High School 5000m 22:45 36th · 6th on team 114.7 +0.056 ★CR CSR RSR
2014-09-27 Stanford University Golf Course 5000m 22:40 170th · 6th on team 109.1 +0.002 CSR
2014-09-17 Willow Hills Reservoir Course 5000m 22:33 29th · 6th on team 114.6 +0.045 ★CR SR CSR RSR
2014-09-13 Nevada Union High School 4828m 22:43.6 1st · 1st on team 112.7 +0.076 ★PR ★CR SR CSR RSR

2013 XC 112.9

Folsom (CA) · Grade 11

Date Meet Event Result Place Rating Difficulty PR/SR Flags
2013-11-02 Willow Hills Reservoir Course 5000m 22:47 32nd · 4th on team 113.0 +0.045
2013-10-09 Granite Park 5000m 21:45 31st · 4th on team 113.6 +0.002 PR ★CR SR CSR
2013-09-28 Stanford University Golf Course 5000m 22:00 141st · 4th on team 112.7 +0.002 PR ★CR SR CSR
2013-09-21 Muller Vineyards 5000m 23:45 53rd · 2nd on team 111.1 +0.081 ★CR CSR
2013-09-07 Willow Hills Reservoir Course 5000m 22:34 13th · 4th on team 114.9 +0.045 PR CR R SR CSR RSR
2013-08-31 Maidu Park 4000m 17:06 27th · 3rd on team 112.0 -0.013 ★PR ★CR SR CSR RSR

2012 XC 104.1

Folsom (CA) · Grade 10

Date Meet Event Result Place Rating Difficulty PR/SR Flags
2012-11-03 Calaveras County Fairgrounds 3218m 18:22 130th · 5th on team +0.084 ★CR CSR
2012-10-27 Willow Hills Reservoir Course 3400m 14:59 16th · 5th on team 113.3 +0.043 ★PR ★CR R SR CSR RSR
2012-10-17 Granite Park 3218m 15:41 10th · 5th on team 96.3 -0.013 ★PR ★CR SR CSR
2012-10-06 Granite Park 3540m 15:49 8th · 4th on team 106.7 -0.001 ★PR ★CR SR CSR
2012-09-15 Willow Hills Reservoir Course 3300m 15:42 16th · 4th on team 105.6 +0.056 ★PR ★CR SR CSR
2012-09-08 Granite Park 3218m 15:44.4 32nd · 4th on team 95.7 -0.013 PR CR SR CSR
2012-09-01 Willow Hills Reservoir Course 2500m 11:02 7th · 4th on team 107.1 +0.036 ★PR ★CR R SR CSR RSR
2012-09-01 Willow Hills Reservoir Course 12500m 54:22.8 1st · 1st on team ★PR ★CR SR CSR

Track & Field

TF speed rating

2014 TF 110.5

Folsom (CA) · Grade 11

Date Meet Event Result Place Rating Difficulty PR/SR Flags
2014-05-16 DRL Finals (F/S & Varsity) 1600m 6:23.77 17th · 2nd on team 109.7 -0.018
2014-03-08 King/Gilbert Invitational 1600m 6:11.49 26th · 2nd on team 111.9 -0.027
2014-03-01 Capital Classic Relays 1600m 6:05.29 9th · 2nd on team 113.5 -0.033 SR RSR
2014-02-22 Intrasquad 800m 2:53.7 4th · 4th on team 106.7 -0.020 SR RSR

2013 TF 108.6

Folsom (CA) · Grade 10

Date Meet Event Result Place Rating Difficulty PR/SR Flags
2013-05-08 DRL F/S Championships 1600m 6:02.9 13th · 2nd on team 113.1 -0.031 ★PR SR RSR
2013-04-26 Frosh/Soph Future Stars Invitational 1600m 6:20.39 7th · 2nd on team 109.9 -0.020
2013-04-24 Jesuit/St. Francis, Folsom vs. Oak Ridge 800m 2:53.11 3rd · 1st on team 107.2 -0.018 ★PR SR
2013-04-19 45th Annual Del Oro Invite 1500m 5:50.49 21st · 2nd on team 110.1 -0.024 ★PR SR
2013-04-17 Ponderosa vs Folsom 800m 2:57.1 1st · 1st on team 105.0 -0.020 PR SR
2013-04-10 Folsom vs Pleasant Grove 800m 3:01.7 1st · 1st on team 102.1 -0.020 PR SR
2013-04-10 Folsom vs Pleasant Grove 1600m 6:28.5 1st · 1st on team 107.6 -0.020
2013-03-20 Sheldon vs Folsom 1600m 6:22.6 2nd · 2nd on team 109.2 -0.020
2013-03-09 King/Gilbert Invitational 1600m 6:07.52 21st · 3rd on team 112.8 -0.027 PR SR RSR

2012 TF

Folsom (CA) · Grade 9

Date Meet Event Result Place Rating Difficulty PR/SR Flags
2012-05-08 Delta River League Frosh/Soph Championships 100m 15.03 13th · 3rd on team -0.022
2012-04-27 Frosh Soph Future Stars 200m 30.4 9th · 1st on team -0.020
2012-04-27 Frosh Soph Future Stars 100m 14.56 7th · 2nd on team -0.020
2012-04-25 Oak Ridge, Folsom vs. St. Francis/Jesuit 100m 14.85 5th · 2nd on team -0.034
2012-04-20 Del Oro Invitational 100m 14.95 32nd · 3rd on team -0.024
2012-04-18 Delta River League Meet-Folsom vs Ponderosa 100m 14.54 2nd · 2nd on team -0.022 ★PR SR
2012-04-18 Delta River League Meet-Folsom vs Ponderosa 200m 31.34 3rd · 3rd on team -0.022
2012-04-14 Depth Charge 100m 14.67 6th · 1st on team -0.020 PR SR
2012-03-28 PG dual 100m 15.14 2nd · 2nd on team -0.020
2012-03-21 sheldon dual 100m 14.84 2nd · 2nd on team -0.020 PR SR
2012-03-21 sheldon dual 200m 30.04 1st · 1st on team -0.020 ★PR SR
2012-03-10 Bob King - Don Gilbert Invitational 100m 15.72 32nd · 1st on team -0.027 PR SR